Time;durP1;ratioP1;P1;durP2;ratioP2;P2;SDS_P1;SDS_P2;PMS_P1;PMS_P2;Temp;Humidity;BMP_temperature;BMP_pressure;BME280_temperature;BME280_humidity;BME280_pressure;Samples;Min_cycle;Max_cycle;Signal;HPM_P1;HPM_P2
2023/03/06 00:02:20;;;;;;;15.98;13.63;;;3.40;99.90;;;;;;4985363;28;20062;-75
2023/03/06 00:04:46;;;;;;;16.10;14.52;;;3.40;99.90;;;;;;4987214;28;20109;-75
2023/03/06 00:07:12;;;;;;;15.70;13.40;;;3.30;99.90;;;;;;4987161;28;20034;-76
2023/03/06 00:09:38;;;;;;;15.98;12.75;;;3.30;99.90;;;;;;4985974;28;20086;-75
2023/03/06 00:12:04;;;;;;;19.30;13.93;;;3.30;99.90;;;;;;4987145;28;20030;-75
2023/03/06 00:14:29;;;;;;;14.13;12.68;;;3.30;99.90;;;;;;4987004;28;20035;-75
2023/03/06 00:16:55;;;;;;;15.35;13.30;;;3.20;99.90;;;;;;4965984;28;20039;-75
2023/03/06 00:19:22;;;;;;;13.38;12.05;;;3.20;99.90;;;;;;4985908;28;20090;-75
2023/03/06 00:21:48;;;;;;;20.10;14.80;;;3.20;99.90;;;;;;4987154;28;20035;-75
2023/03/06 00:24:14;;;;;;;13.52;12.32;;;3.20;99.90;;;;;;4969689;28;20134;-75
2023/03/06 00:26:40;;;;;;;14.13;10.98;;;3.10;99.90;;;;;;4985709;28;20031;-75
2023/03/06 00:29:07;;;;;;;12.73;11.50;;;3.10;99.90;;;;;;4986862;28;20035;-76
2023/03/06 00:31:33;;;;;;;14.98;13.35;;;3.10;99.90;;;;;;4985459;28;20041;-75
2023/03/06 00:33:59;;;;;;;13.75;12.35;;;3.00;99.90;;;;;;4969542;28;20034;-75
2023/03/06 00:36:25;;;;;;;16.10;12.13;;;3.00;99.90;;;;;;4985674;28;20074;-75
2023/03/06 00:38:51;;;;;;;14.27;12.88;;;3.00;99.90;;;;;;4985565;28;20035;-76
2023/03/06 00:41:17;;;;;;;13.93;12.45;;;2.90;99.90;;;;;;4985717;28;20062;-75
2023/03/06 00:43:43;;;;;;;15.90;14.35;;;2.90;99.90;;;;;;4986900;28;20070;-75
2023/03/06 00:46:08;;;;;;;15.55;13.65;;;2.90;99.90;;;;;;4985011;28;20034;-75
2023/03/06 00:48:34;;;;;;;17.48;14.20;;;2.90;99.90;;;;;;4985509;28;20081;-75
2023/03/06 00:51:00;;;;;;;16.83;14.15;;;2.80;99.90;;;;;;4986734;28;20031;-75
2023/03/06 00:53:26;;;;;;;17.33;14.95;;;2.80;99.90;;;;;;4986755;28;20031;-75
2023/03/06 00:55:52;;;;;;;19.20;16.80;;;2.70;99.90;;;;;;4985666;28;20093;-75
2023/03/06 00:58:18;;;;;;;19.17;17.23;;;2.70;99.90;;;;;;4969149;28;20070;-75
2023/03/06 01:00:44;;;;;;;20.92;18.83;;;2.60;99.90;;;;;;4985030;28;20075;-76
2023/03/06 01:03:10;;;;;;;22.13;19.60;;;2.50;99.90;;;;;;4984927;28;20023;-75
2023/03/06 01:05:37;;;;;;;23.08;19.10;;;2.50;99.90;;;;;;4969351;28;20019;-75
2023/03/06 01:08:05;;;;;;;21.60;19.48;;;2.50;99.90;;;;;;4984989;28;20027;-75
2023/03/06 01:10:31;;;;;;;22.92;20.33;;;2.50;99.90;;;;;;4985360;28;20041;-75
2023/03/06 01:12:57;;;;;;;22.23;19.92;;;2.40;99.90;;;;;;4985980;28;20023;-75
2023/03/06 01:15:25;;;;;;;25.48;22.40;;;2.50;99.90;;;;;;4990126;28;20502;-75
2023/03/06 01:17:53;;;;;;;27.00;20.40;;;2.40;99.90;;;;;;4988770;28;20059;-76
2023/03/06 01:20:19;;;;;;;25.33;22.85;;;2.40;99.90;;;;;;4988382;28;20031;-75
2023/03/06 01:22:45;;;;;;;24.42;20.60;;;2.40;99.90;;;;;;4988510;28;20042;-76
2023/03/06 01:25:11;;;;;;;26.85;23.30;;;2.50;99.90;;;;;;4988752;28;20030;-76
2023/03/06 01:27:36;;;;;;;25.00;22.52;;;2.50;99.90;;;;;;4989886;28;20069;-76
2023/03/06 01:30:03;;;;;;;25.65;22.92;;;2.60;99.90;;;;;;4988758;28;20054;-76
2023/03/06 01:32:30;;;;;;;26.15;22.65;;;2.60;99.90;;;;;;4988600;28;20037;-75
2023/03/06 01:34:56;;;;;;;23.42;21.15;;;2.60;99.90;;;;;;4989907;28;20027;-75
2023/03/06 01:37:22;;;;;;;26.98;22.70;;;2.60;99.90;;;;;;4988145;28;20484;-75
2023/03/06 01:39:49;;;;;;;26.45;23.67;;;2.70;99.90;;;;;;4988651;28;20440;-75
2023/03/06 01:42:15;;;;;;;27.67;24.85;;;2.70;99.90;;;;;;4988378;28;20027;-75
2023/03/06 01:45:03;;;;;;;26.15;23.42;;;2.80;99.90;;;;;;4989648;28;20035;-75
2023/03/06 01:47:29;;;;;;;26.50;22.83;;;2.80;99.90;;;;;;4988300;28;20034;-75
2023/03/06 01:49:57;;;;;;;31.00;23.67;;;2.80;99.90;;;;;;4988476;28;20011;-76
2023/03/06 01:52:29;;;;;;;24.63;20.50;;;2.80;99.90;;;;;;4988120;28;20030;-75
2023/03/06 01:55:02;;;;;;;27.52;23.90;;;2.80;99.90;;;;;;4972038;28;20416;-75
2023/03/06 01:57:32;;;;;;;25.65;23.05;;;2.90;99.90;;;;;;4988213;28;20027;-75
2023/03/06 02:00:07;;;;;;;33.17;25.65;;;2.90;99.90;;;;;;4988149;28;20082;-75
2023/03/06 02:02:40;;;;;;;28.55;25.60;;;3.00;99.90;;;;;;4989497;28;20027;-75
2023/03/06 02:05:07;;;;;;;28.95;25.95;;;3.00;99.90;;;;;;4971969;28;20041;-75
2023/03/06 02:07:35;;;;;;;28.85;25.75;;;3.10;99.90;;;;;;4988582;28;20027;-75
2023/03/06 02:10:01;;;;;;;28.58;25.63;;;3.00;99.90;;;;;;4988133;28;20050;-75
2023/03/06 02:12:27;;;;;;;29.60;26.42;;;3.10;99.90;;;;;;4987967;28;20034;-75
2023/03/06 02:14:53;;;;;;;32.20;28.92;;;3.20;99.90;;;;;;4986095;28;20380;-75
2023/03/06 02:17:21;;;;;;;30.73;26.77;;;3.20;99.90;;;;;;4988063;28;20057;-75
2023/03/06 02:20:02;;;;;;;33.70;29.10;;;3.20;99.90;;;;;;5003874;28;20097;-75
2023/03/06 02:23:00;;;;;;;29.40;25.42;;;3.20;99.90;;;;;;4987482;28;20038;-75
2023/03/06 02:25:47;;;;;;;41.78;29.85;;;3.20;99.90;;;;;;4971734;28;20037;-75
2023/03/06 02:28:16;;;;;;;33.75;27.50;;;3.20;99.90;;;;;;4983781;28;20043;-75
2023/03/06 02:30:44;;;;;;;29.70;23.52;;;3.20;99.90;;;;;;4988664;28;20031;-75
2023/03/06 02:33:17;;;;;;;30.90;26.55;;;3.20;99.90;;;;;;4987787;28;20031;-75
2023/03/06 02:35:48;;;;;;;29.88;24.55;;;3.20;99.90;;;;;;4988461;28;20047;-75
2023/03/06 02:38:18;;;;;;;33.70;26.40;;;3.20;99.90;;;;;;4987469;28;20038;-75
2023/03/06 02:40:48;;;;;;;27.05;24.15;;;3.20;99.90;;;;;;4987350;28;20029;-75
2023/03/06 02:43:19;;;;;;;31.73;28.08;;;3.20;99.90;;;;;;4987496;28;20027;-75
2023/03/06 02:45:47;;;;;;;31.23;22.63;;;3.20;99.90;;;;;;4987326;28;20027;-75
2023/03/06 02:48:14;;;;;;;32.42;24.75;;;3.20;99.90;;;;;;4987080;28;20354;-75
2023/03/06 02:50:41;;;;;;;29.88;24.83;;;3.30;99.90;;;;;;4986785;28;20481;-75
2023/03/06 02:53:09;;;;;;;28.60;24.65;;;3.30;99.90;;;;;;4988595;28;20031;-75
2023/03/06 02:55:35;;;;;;;28.52;25.20;;;3.30;99.90;;;;;;4988455;28;20038;-75
2023/03/06 02:58:02;;;;;;;30.90;27.80;;;3.30;99.90;;;;;;4986769;28;20027;-75
2023/03/06 03:00:30;;;;;;;34.50;26.27;;;3.30;99.90;;;;;;4986926;28;20093;-75
2023/03/06 03:02:55;;;;;;;31.33;26.73;;;3.30;99.90;;;;;;4987879;28;20031;-75
2023/03/06 03:05:22;;;;;;;26.98;24.10;;;3.20;99.90;;;;;;4987995;28;20027;-75
2023/03/06 03:07:55;;;;;;;26.20;23.52;;;3.30;99.90;;;;;;4982159;28;20517;-75
2023/03/06 03:10:22;;;;;;;26.17;23.42;;;3.30;99.90;;;;;;4983645;28;20029;-75
2023/03/06 03:12:48;;;;;;;28.67;22.58;;;3.30;99.90;;;;;;4983488;28;20023;-75
2023/03/06 03:15:16;;;;;;;28.98;23.48;;;3.30;99.90;;;;;;4967499;28;20034;-75
2023/03/06 03:17:42;;;;;;;26.27;23.73;;;3.20;99.90;;;;;;4967267;28;20039;-75
2023/03/06 03:20:12;;;;;;;25.73;22.83;;;3.30;99.90;;;;;;4983476;28;20054;-75
2023/03/06 03:22:38;;;;;;;27.48;23.23;;;3.20;99.90;;;;;;4972763;28;20035;-75
2023/03/06 03:25:04;;;;;;;26.42;23.38;;;3.20;99.90;;;;;;4986350;28;20090;-75
2023/03/06 03:27:30;;;;;;;28.73;24.55;;;3.20;99.90;;;;;;4986462;28;20047;-75
2023/03/06 03:29:58;;;;;;;25.13;22.48;;;3.20;99.90;;;;;;4970449;28;20050;-75
2023/03/06 03:32:24;;;;;;;24.13;20.48;;;3.10;99.90;;;;;;4986554;28;20038;-75
2023/03/06 03:34:51;;;;;;;30.10;25.88;;;3.10;99.90;;;;;;4986481;28;20050;-75
2023/03/06 03:37:17;;;;;;;29.67;23.30;;;3.00;99.90;;;;;;4966603;28;20031;-75
2023/03/06 03:39:43;;;;;;;23.35;20.95;;;3.00;99.90;;;;;;4968286;29;20035;-75
2023/03/06 03:42:10;;;;;;;25.48;22.92;;;2.90;99.90;;;;;;4982871;28;20055;-75
2023/03/06 03:44:36;;;;;;;27.23;23.25;;;2.70;99.90;;;;;;4983123;28;20035;-75
2023/03/06 03:47:01;;;;;;;25.52;19.52;;;2.60;99.90;;;;;;4982965;28;20035;-75
2023/03/06 03:49:29;;;;;;;24.38;21.77;;;2.50;99.90;;;;;;4982927;28;20389;-75
2023/03/06 03:51:54;;;;;;;29.55;23.38;;;2.30;99.90;;;;;;4985446;28;20034;-75
2023/03/06 03:54:22;;;;;;;25.05;20.17;;;2.30;99.90;;;;;;4970148;28;20030;-75
2023/03/06 03:56:51;;;;;;;25.35;20.77;;;2.20;99.90;;;;;;4986070;28;20050;-75
2023/03/06 03:59:23;;;;;;;32.00;26.98;;;2.10;99.90;;;;;;4970464;28;20043;-75
2023/03/06 04:02:09;;;;;;;26.77;23.45;;;2.00;99.90;;;;;;4987184;28;20066;-75
2023/03/06 04:04:42;;;;;;;28.98;23.10;;;2.00;99.90;;;;;;4986148;28;20035;-75
2023/03/06 04:07:09;;;;;;;28.02;24.40;;;1.90;99.90;;;;;;4969668;28;20026;-75
2023/03/06 04:09:36;;;;;;;24.95;22.42;;;1.90;99.90;;;;;;4985841;28;20023;-75
2023/03/06 04:12:02;;;;;;;25.90;23.20;;;1.80;99.90;;;;;;4986013;28;20053;-75
2023/03/06 04:14:29;;;;;;;31.27;22.85;;;1.70;99.90;;;;;;4969994;28;20485;-75
2023/03/06 04:16:55;;;;;;;27.40;22.35;;;1.60;99.90;;;;;;4953849;28;20600;-75
2023/03/06 04:19:21;;;;;;;26.55;23.15;;;1.60;99.90;;;;;;4985772;28;20031;-75
2023/03/06 04:21:48;;;;;;;30.13;24.63;;;1.60;99.90;;;;;;4985690;28;20035;-75
2023/03/06 04:24:13;;;;;;;25.05;22.40;;;1.50;99.90;;;;;;4985694;28;20031;-75
2023/03/06 04:26:39;;;;;;;26.20;23.40;;;1.40;99.90;;;;;;4985869;28;20027;-75
2023/03/06 04:29:06;;;;;;;24.55;21.48;;;1.40;99.90;;;;;;4985648;28;20054;-75
2023/03/06 04:31:32;;;;;;;25.88;21.92;;;1.30;99.90;;;;;;4985802;28;20055;-75
2023/03/06 04:33:57;;;;;;;23.98;20.52;;;1.20;99.90;;;;;;4969864;28;20031;-75
2023/03/06 04:36:30;;;;;;;30.40;24.75;;;1.20;99.90;;;;;;4985450;28;20059;-75
2023/03/06 04:39:00;;;;;;;27.23;22.52;;;1.20;99.90;;;;;;4985594;28;20369;-75
2023/03/06 04:41:26;;;;;;;30.23;27.05;;;1.20;99.90;;;;;;4969636;28;20047;-75
2023/03/06 04:43:52;;;;;;;26.27;23.45;;;1.20;99.90;;;;;;4986938;28;20023;-75
2023/03/06 04:46:18;;;;;;;25.95;23.17;;;1.20;99.90;;;;;;4969486;28;20042;-75
2023/03/06 04:48:44;;;;;;;30.08;25.80;;;1.10;99.90;;;;;;4988818;28;20033;-75
2023/03/06 04:51:11;;;;;;;25.92;23.38;;;1.00;99.90;;;;;;4989353;28;20030;-75
2023/03/06 04:53:37;;;;;;;29.88;26.27;;;1.00;99.90;;;;;;4990580;28;20031;-75
2023/03/06 04:56:04;;;;;;;35.72;28.05;;;1.00;99.90;;;;;;4989371;28;20082;-75
2023/03/06 04:58:29;;;;;;;31.58;25.90;;;0.90;99.90;;;;;;4990426;28;20035;-75
2023/03/06 05:00:55;;;;;;;27.67;24.85;;;0.90;99.90;;;;;;4989111;28;20059;-75
2023/03/06 05:03:21;;;;;;;29.58;26.40;;;1.00;99.90;;;;;;4989303;28;20098;-75
2023/03/06 05:05:47;;;;;;;29.45;26.27;;;0.90;99.90;;;;;;4988708;28;20099;-75
2023/03/06 05:08:15;;;;;;;31.85;25.80;;;0.90;99.90;;;;;;4990390;28;20030;-75
2023/03/06 05:10:44;;;;;;;30.15;26.38;;;0.90;99.90;;;;;;4990404;28;20027;-75
2023/03/06 05:13:10;;;;;;;33.87;29.57;;;0.90;99.90;;;;;;4989021;28;20038;-75
2023/03/06 05:15:39;;;;;;;34.15;28.88;;;0.90;99.90;;;;;;4990040;28;20343;-75
2023/03/06 05:18:05;;;;;;;36.10;31.50;;;0.90;99.90;;;;;;4990370;28;20043;-75
2023/03/06 05:20:31;;;;;;;30.55;26.33;;;0.90;99.90;;;;;;4990111;28;20485;-75
2023/03/06 05:22:56;;;;;;;32.55;29.00;;;0.90;99.90;;;;;;4990050;28;20030;-75
2023/03/06 05:25:22;;;;;;;34.25;28.48;;;0.90;99.90;;;;;;4988331;28;20392;-75
2023/03/06 05:27:48;;;;;;;36.47;30.20;;;0.90;99.90;;;;;;4989939;28;20101;-75
2023/03/06 05:30:15;;;;;;;31.08;26.85;;;0.80;99.90;;;;;;4987855;28;20536;-75
2023/03/06 05:32:41;;;;;;;41.55;34.10;;;0.80;99.90;;;;;;4990062;28;20106;-75
2023/03/06 05:35:07;;;;;;;36.63;30.50;;;0.80;99.90;;;;;;4988155;28;21805;-75
2023/03/06 05:37:33;;;;;;;46.50;33.60;;;0.70;99.90;;;;;;4985299;28;20030;-75
2023/03/06 05:39:59;;;;;;;37.28;31.98;;;0.70;99.90;;;;;;4988284;28;20034;-76
2023/03/06 05:42:26;;;;;;;40.63;32.53;;;0.60;99.90;;;;;;4988932;28;20026;-75
2023/03/06 05:44:52;;;;;;;36.72;30.60;;;0.50;99.90;;;;;;4988785;28;20042;-75
2023/03/06 05:47:18;;;;;;;36.47;31.63;;;0.50;99.90;;;;;;4988301;28;20062;-75
2023/03/06 05:49:44;;;;;;;35.47;31.73;;;0.50;99.90;;;;;;4987942;28;20019;-75
2023/03/06 05:52:11;;;;;;;40.58;35.70;;;0.50;99.90;;;;;;4987933;28;20027;-75
2023/03/06 05:54:37;;;;;;;44.58;33.50;;;0.40;99.90;;;;;;4989135;28;20034;-73
2023/03/06 05:57:04;;;;;;;44.00;36.10;;;0.40;99.90;;;;;;4988681;28;20073;-73
2023/03/06 05:59:31;;;;;;;51.17;38.65;;;0.30;99.90;;;;;;4970407;28;20137;-74
2023/03/06 06:01:57;;;;;;;43.50;35.42;;;0.40;99.90;;;;;;4987628;28;20519;-75
2023/03/06 06:04:25;;;;;;;42.67;35.05;;;0.40;99.90;;;;;;4988023;28;20035;-75
2023/03/06 06:06:59;;;;;;;40.38;32.65;;;0.40;99.90;;;;;;4987256;28;20035;-75
2023/03/06 06:09:26;;;;;;;44.97;32.42;;;0.40;99.90;;;;;;5000602;28;20022;-75
2023/03/06 06:11:53;;;;;;;43.83;37.80;;;0.50;99.90;;;;;;4987591;28;20023;-75
2023/03/06 06:14:20;;;;;;;39.85;35.55;;;0.40;99.90;;;;;;4987696;28;20027;-75
2023/03/06 06:16:46;;;;;;;41.83;34.90;;;0.40;99.90;;;;;;4988670;28;20035;-75
2023/03/06 06:19:17;;;;;;;52.58;40.70;;;0.50;99.90;;;;;;4986635;28;20563;-75
2023/03/06 06:21:49;;;;;;;54.22;40.67;;;0.60;99.90;;;;;;4962049;28;20399;-75
2023/03/06 06:24:17;;;;;;;46.10;36.78;;;0.70;99.90;;;;;;4980988;28;20026;-75
2023/03/06 06:26:43;;;;;;;52.25;40.38;;;0.80;99.90;;;;;;4970086;28;20026;-75
2023/03/06 06:29:09;;;;;;;44.63;39.70;;;0.90;99.90;;;;;;4970757;28;20042;-76
2023/03/06 06:31:36;;;;;;;55.38;42.67;;;1.00;99.90;;;;;;4987493;28;20384;-76
2023/03/06 06:34:04;;;;;;;43.38;37.38;;;1.10;99.90;;;;;;4988292;28;20027;-75
2023/03/06 06:36:31;;;;;;;50.22;37.25;;;1.20;99.90;;;;;;4970682;28;20123;-75
2023/03/06 06:38:57;;;;;;;47.10;38.28;;;1.30;99.90;;;;;;4988039;28;20043;-75
2023/03/06 06:41:24;;;;;;;54.25;39.67;;;1.30;99.90;;;;;;4970813;28;20023;-73
2023/03/06 06:43:50;;;;;;;44.72;36.22;;;1.40;99.90;;;;;;4988092;28;20041;-75
2023/03/06 06:46:16;;;;;;;44.33;36.10;;;1.50;99.90;;;;;;4978253;28;20035;-75
2023/03/06 06:48:42;;;;;;;45.53;40.25;;;1.50;99.90;;;;;;4987906;28;20035;-75
2023/03/06 06:51:07;;;;;;;50.90;38.92;;;1.60;99.90;;;;;;4986791;28;20035;-73
2023/03/06 06:53:33;;;;;;;48.53;37.83;;;1.60;99.90;;;;;;4986669;28;20361;-73
2023/03/06 06:55:59;;;;;;;44.90;37.45;;;1.70;99.90;;;;;;4987869;28;20493;-75
2023/03/06 06:58:26;;;;;;;47.67;38.65;;;1.80;99.90;;;;;;4986348;28;20038;-75
2023/03/06 07:00:52;;;;;;;48.50;41.40;;;1.80;99.90;;;;;;4980312;28;20053;-73
2023/03/06 07:03:17;;;;;;;47.08;39.20;;;1.90;99.90;;;;;;4985760;28;20030;-75
2023/03/06 07:05:43;;;;;;;43.47;38.53;;;2.00;99.90;;;;;;4978311;28;20035;-75
2023/03/06 07:08:09;;;;;;;44.92;34.30;;;2.00;99.90;;;;;;4986876;28;20023;-75
2023/03/06 07:10:38;;;;;;;41.00;35.88;;;2.10;99.90;;;;;;4969653;28;21559;-75
2023/03/06 07:13:04;;;;;;;45.33;39.00;;;2.20;99.90;;;;;;4984436;28;20027;-75
2023/03/06 07:15:31;;;;;;;43.15;35.80;;;2.20;99.90;;;;;;4969590;28;20033;-75
2023/03/06 07:17:56;;;;;;;41.50;37.03;;;2.30;99.90;;;;;;4987909;28;20026;-74
2023/03/06 07:20:22;;;;;;;45.58;39.95;;;2.40;99.90;;;;;;4985720;28;20087;-75
2023/03/06 07:22:48;;;;;;;45.95;37.03;;;2.50;99.90;;;;;;4984327;28;20065;-75
2023/03/06 07:25:14;;;;;;;38.90;32.38;;;2.50;99.90;;;;;;4956488;28;20035;-75
2023/03/06 07:27:40;;;;;;;40.35;35.33;;;2.60;99.90;;;;;;4986034;28;20189;-75
2023/03/06 07:30:07;;;;;;;48.03;40.08;;;2.70;99.90;;;;;;4969970;28;20045;-74
2023/03/06 07:32:33;;;;;;;47.10;40.05;;;2.70;99.90;;;;;;4970121;28;20086;-75
2023/03/06 07:34:59;;;;;;;46.53;38.30;;;2.70;99.90;;;;;;4982885;28;20046;-74
2023/03/06 07:37:24;;;;;;;40.78;34.88;;;2.70;99.90;;;;;;4985947;28;20031;-75
2023/03/06 07:39:50;;;;;;;39.78;32.13;;;2.80;99.90;;;;;;4982239;28;20085;-74
2023/03/06 07:42:16;;;;;;;50.85;39.00;;;2.80;99.90;;;;;;4982690;28;20045;-75
2023/03/06 07:44:53;;;;;;;59.30;43.25;;;2.90;99.90;;;;;;4970424;28;20107;-75
2023/03/06 07:47:19;;;;;;;45.38;33.85;;;2.90;99.90;;;;;;4985581;28;20039;-74
2023/03/06 07:49:50;;;;;;;38.00;33.63;;;2.90;99.90;;;;;;4984928;28;20034;-75
2023/03/06 07:52:22;;;;;;;35.10;31.25;;;3.00;99.90;;;;;;4979836;28;20026;-75
2023/03/06 07:54:48;;;;;;;41.78;33.22;;;2.90;99.90;;;;;;4984092;28;20569;-75
2023/03/06 07:57:14;;;;;;;41.20;31.50;;;3.00;99.90;;;;;;4983587;28;20094;-74
2023/03/06 07:59:40;;;;;;;40.08;33.38;;;3.00;99.90;;;;;;4967827;28;20058;-74
2023/03/06 08:02:06;;;;;;;44.60;38.20;;;3.00;99.90;;;;;;4977166;28;20029;-75
2023/03/06 08:04:33;;;;;;;40.08;32.88;;;3.10;99.90;;;;;;4953581;28;20058;-75
2023/03/06 08:06:59;;;;;;;41.92;34.13;;;3.20;99.90;;;;;;4984318;28;20038;-75
2023/03/06 08:09:25;;;;;;;45.22;32.13;;;3.20;99.90;;;;;;4967652;28;20031;-75
2023/03/06 08:11:51;;;;;;;36.50;29.02;;;3.30;99.90;;;;;;4968786;28;20030;-74
2023/03/06 08:14:17;;;;;;;38.63;31.05;;;3.30;99.90;;;;;;4985879;28;20034;-76
2023/03/06 08:16:42;;;;;;;35.15;31.65;;;3.40;99.90;;;;;;4986908;28;20490;-75
2023/03/06 08:19:08;;;;;;;35.83;30.48;;;3.50;99.90;;;;;;4985321;28;20090;-75
2023/03/06 08:21:34;;;;;;;42.78;31.70;;;3.60;99.90;;;;;;4985792;28;20026;-74
2023/03/06 08:24:00;;;;;;;33.03;28.38;;;3.60;99.90;;;;;;4985724;28;20097;-74
2023/03/06 08:26:29;;;;;;;37.13;31.77;;;3.60;99.90;;;;;;4986487;28;20070;-75
2023/03/06 08:28:57;;;;;;;35.17;28.17;;;3.60;99.90;;;;;;4985673;28;20027;-75
2023/03/06 08:31:31;;;;;;;30.80;26.73;;;3.60;99.90;;;;;;4985377;28;20039;-75
2023/03/06 08:33:59;;;;;;;36.85;32.28;;;3.70;99.90;;;;;;4985468;28;20042;-75
2023/03/06 08:36:25;;;;;;;35.63;28.52;;;3.70;99.90;;;;;;4974829;28;20544;-76
2023/03/06 08:38:52;;;;;;;36.35;27.80;;;3.80;99.90;;;;;;4969562;28;20039;-76
2023/03/06 08:41:18;;;;;;;33.17;28.45;;;3.70;99.90;;;;;;4985460;28;20046;-76
2023/03/06 08:43:44;;;;;;;33.35;27.63;;;3.70;99.90;;;;;;4985628;28;20046;-76
2023/03/06 08:46:10;;;;;;;30.23;27.02;;;3.70;99.90;;;;;;4985357;28;20038;-75
2023/03/06 08:48:37;;;;;;;34.70;27.27;;;3.60;99.90;;;;;;4985438;28;20035;-75
2023/03/06 08:51:03;;;;;;;34.13;28.38;;;3.60;99.90;;;;;;4986282;28;20047;-75
2023/03/06 08:53:29;;;;;;;34.55;28.05;;;3.60;99.90;;;;;;4985120;28;20086;-75
2023/03/06 08:55:54;;;;;;;37.92;29.27;;;3.60;99.90;;;;;;4969399;28;20042;-75
2023/03/06 08:58:20;;;;;;;39.40;29.35;;;3.60;99.90;;;;;;4968975;28;20026;-75
2023/03/06 09:00:46;;;;;;;35.10;29.38;;;3.60;99.90;;;;;;4985375;28;20046;-76
2023/03/06 09:03:12;;;;;;;33.65;28.05;;;3.70;99.90;;;;;;4970370;28;20030;-75
2023/03/06 09:05:39;;;;;;;36.90;31.38;;;3.70;99.90;;;;;;4953039;28;20507;-75
2023/03/06 09:08:06;;;;;;;36.38;30.35;;;3.80;99.90;;;;;;4985341;28;20034;-75
2023/03/06 09:10:32;;;;;;;33.58;25.45;;;3.70;99.90;;;;;;4969200;28;20062;-75
2023/03/06 09:12:57;;;;;;;41.10;28.80;;;3.70;99.90;;;;;;4984957;28;20031;-75
2023/03/06 09:15:24;;;;;;;31.23;27.80;;;3.70;99.90;;;;;;4997824;28;20026;-75
2023/03/06 09:17:51;;;;;;;40.42;32.88;;;3.60;99.90;;;;;;4985432;28;20929;-75
2023/03/06 09:20:17;;;;;;;39.03;29.63;;;3.60;99.90;;;;;;4968598;28;20118;-75
2023/03/06 09:22:44;;;;;;;34.78;29.25;;;3.70;99.90;;;;;;4953234;28;20046;-75
2023/03/06 09:25:12;;;;;;;38.97;30.95;;;3.70;99.90;;;;;;4985998;28;20034;-75
2023/03/06 09:27:39;;;;;;;39.78;30.80;;;4.00;99.90;;;;;;4985146;28;20035;-75
2023/03/06 09:30:06;;;;;;;29.88;26.50;;;3.90;99.90;;;;;;4968793;28;20165;-75
2023/03/06 09:32:32;;;;;;;36.63;27.60;;;4.00;99.90;;;;;;4985005;28;20037;-75
2023/03/06 09:34:59;;;;;;;37.10;27.92;;;4.10;99.90;;;;;;4987166;28;20062;-75
2023/03/06 09:37:25;;;;;;;38.72;33.65;;;4.30;99.90;;;;;;4988418;28;20041;-75
2023/03/06 09:39:51;;;;;;;37.22;28.42;;;4.40;99.90;;;;;;4987756;28;20034;-75
2023/03/06 09:42:20;;;;;;;34.85;27.80;;;4.40;99.90;;;;;;4972210;28;20046;-75
2023/03/06 09:44:55;;;;;;;22.48;19.77;;;4.40;99.90;;;;;;4972488;28;20026;-75
2023/03/06 09:47:35;;;;;;;33.85;29.85;;;4.40;99.90;;;;;;4988261;28;20131;-74
2023/03/06 09:50:39;;;;;;;33.60;30.30;;;4.40;99.90;;;;;;5004552;28;20030;-74
2023/03/06 09:53:20;;;;;;;34.17;28.65;;;4.50;99.90;;;;;;4982789;28;20042;-74
2023/03/06 09:56:01;;;;;;;28.92;25.80;;;4.50;99.90;;;;;;4988154;28;20031;-74
2023/03/06 09:58:29;;;;;;;31.05;24.35;;;4.50;99.90;;;;;;4971365;28;20042;-74
2023/03/06 10:01:17;;;;;;;36.80;28.20;;;4.40;99.90;;;;;;4987622;28;20055;-74
2023/03/06 10:03:50;;;;;;;35.00;27.25;;;4.40;99.90;;;;;;4987854;28;20118;-74
2023/03/06 10:06:21;;;;;;;38.33;29.20;;;4.30;99.90;;;;;;4957465;29;20027;-76
2023/03/06 10:09:05;;;;;;;32.88;29.35;;;4.20;99.90;;;;;;4971660;28;20142;-73
2023/03/06 10:11:57;;;;;;;34.97;28.05;;;4.20;99.90;;;;;;4988086;28;20055;-74
2023/03/06 10:14:35;;;;;;;32.00;23.63;;;4.20;99.90;;;;;;4985035;28;20046;-75
2023/03/06 10:17:02;;;;;;;38.65;26.33;;;4.30;99.90;;;;;;4988594;28;20035;-73
2023/03/06 10:19:36;;;;;;;39.50;29.30;;;4.30;99.90;;;;;;4988983;28;20023;-74
2023/03/06 10:22:09;;;;;;;29.33;25.83;;;4.30;99.90;;;;;;5003868;28;20034;-73
2023/03/06 10:24:49;;;;;;;31.63;26.60;;;4.60;99.90;;;;;;4987092;28;20056;-74
2023/03/06 10:27:41;;;;;;;;;;;4.70;99.90;;;;;;4987945;28;20085;-74
2023/03/06 10:30:31;;;;;;;34.88;29.15;;;4.80;99.90;;;;;;4979780;28;19921;-74
2023/03/06 10:32:58;;;;;;;;;;;4.90;99.90;;;;;;4987294;28;20034;-74
2023/03/06 10:35:32;;;;;;;31.42;27.92;;;5.00;99.90;;;;;;5003843;28;20308;-75
2023/03/06 10:38:26;;;;;;;34.25;30.60;;;4.80;99.90;;;;;;4987230;28;20030;-73
2023/03/06 10:41:10;;;;;;;38.80;30.30;;;4.80;99.90;;;;;;4969313;29;20042;-76
2023/03/06 10:43:38;;;;;;;35.78;30.83;;;4.70;99.90;;;;;;4967946;29;20449;-73
2023/03/06 10:46:06;;;;;;;34.20;28.85;;;4.70;99.90;;;;;;4968234;28;20094;-73
2023/03/06 10:48:35;;;;;;;35.30;30.15;;;4.60;99.90;;;;;;4969206;28;20106;-73
2023/03/06 10:51:20;;;;;;;36.35;32.47;;;4.40;99.90;;;;;;4968964;28;20035;-76
2023/03/06 10:53:57;;;;;;;39.70;29.85;;;4.60;99.90;;;;;;4969110;28;20031;-75
2023/03/06 10:56:41;;;;;;;34.65;30.25;;;4.50;99.90;;;;;;4968123;29;20027;-74
2023/03/06 10:59:30;;;;;;;35.35;30.25;;;4.60;99.90;;;;;;4968600;28;20077;-74
2023/03/06 11:02:22;;;;;;;30.52;26.63;;;4.60;99.90;;;;;;4986971;28;20460;-74
2023/03/06 11:04:52;;;;;;;37.33;29.55;;;4.60;99.90;;;;;;4986928;28;20045;-74
2023/03/06 11:07:47;;;;;;;34.28;27.90;;;4.50;99.90;;;;;;4986918;28;20039;-74
2023/03/06 11:10:18;;;;;;;36.20;26.45;;;4.50;99.90;;;;;;4986522;28;20126;-74
2023/03/06 11:13:00;;;;;;;36.00;28.80;;;4.50;99.90;;;;;;4988260;28;20035;-74
2023/03/06 11:15:27;;;;;;;30.10;27.08;;;4.60;99.90;;;;;;4988127;28;20050;-74
2023/03/06 11:17:57;;;;;;;29.55;26.55;;;4.70;99.90;;;;;;4986449;28;20050;-74
2023/03/06 11:20:48;;;;;;;33.08;27.73;;;4.80;99.90;;;;;;4987827;28;20042;-74
2023/03/06 11:23:37;;;;;;;32.85;29.05;;;5.00;99.90;;;;;;4989492;28;20050;-74
2023/03/06 11:26:15;;;;;;;34.78;28.42;;;5.10;99.90;;;;;;4986472;28;20058;-74
2023/03/06 11:28:57;;;;;;;33.85;30.23;;;5.30;99.90;;;;;;4986554;28;20030;-75
2023/03/06 11:31:27;;;;;;;33.47;29.88;;;5.40;99.90;;;;;;4987709;28;20034;-74
2023/03/06 11:34:12;;;;;;;32.60;26.40;;;5.50;99.90;;;;;;4986256;28;20030;-74
2023/03/06 11:37:20;;;;;;;33.15;28.33;;;5.60;99.90;;;;;;4987757;28;20393;-74
2023/03/06 11:40:10;;;;;;;37.47;29.38;;;5.70;99.90;;;;;;4978450;28;20075;-74
2023/03/06 11:42:54;;;;;;;;;;;5.60;99.90;;;;;;4977563;28;20030;-75
2023/03/06 11:45:31;;;;;;;35.25;27.27;;;5.50;99.90;;;;;;4985816;28;19910;-75
2023/03/06 11:48:23;;;;;;;34.65;26.73;;;5.50;99.90;;;;;;4985961;28;20046;-75
2023/03/06 11:50:51;;;;;;;30.38;27.15;;;5.50;99.90;;;;;;4987167;28;20452;-75
2023/03/06 11:53:21;;;;;;;40.33;27.05;;;5.40;99.90;;;;;;4987091;28;20023;-75
2023/03/06 11:56:06;;;;;;;37.65;30.48;;;5.40;99.90;;;;;;4986141;28;20082;-74
2023/03/06 11:58:59;;;;;;;41.88;26.75;;;5.40;99.90;;;;;;4985198;28;20053;-74
2023/03/06 12:01:40;;;;;;;37.70;28.52;;;5.50;99.90;;;;;;4975975;28;20463;-74
2023/03/06 12:04:18;;;;;;;26.80;23.85;;;5.80;99.90;;;;;;4984763;28;20054;-74
2023/03/06 12:07:10;;;;;;;33.63;24.88;;;6.00;99.90;;;;;;4999762;28;20472;-74
2023/03/06 12:09:49;;;;;;;25.05;22.55;;;6.10;99.90;;;;;;4987281;28;20031;-74
2023/03/06 12:12:48;;;;;;;27.00;22.02;;;6.20;99.90;;;;;;4986955;28;20412;-74
2023/03/06 12:15:38;;;;;;;31.20;23.88;;;6.30;99.90;;;;;;4985863;28;20031;-74
2023/03/06 12:18:33;;;;;;;41.47;35.35;;;6.30;99.90;;;;;;4986680;28;20057;-74
2023/03/06 12:21:32;;;;;;;36.50;25.25;;;6.40;99.90;;;;;;4967706;28;20062;-74
2023/03/06 12:24:22;;;;;;;55.70;40.92;;;6.70;99.90;;;;;;4970158;28;20077;-74
2023/03/06 12:26:57;;;;;;;;;;;6.90;99.90;;;;;;4985746;28;20066;-74
2023/03/06 12:29:52;;;;;;;36.55;29.45;;;7.20;99.90;;;;;;4986708;28;19910;-74
2023/03/06 12:32:40;;;;;;;28.35;23.10;;;7.80;99.90;;;;;;4985509;28;20057;-74
2023/03/06 12:35:22;;;;;;;25.15;19.65;;;8.10;99.90;;;;;;4984952;28;20035;-74
2023/03/06 12:37:48;;;;;;;20.13;17.08;;;8.50;99.90;;;;;;4985181;28;20134;-74
2023/03/06 12:40:38;;;;;;;21.25;18.73;;;9.10;99.90;;;;;;4985596;28;20041;-74
2023/03/06 12:43:41;;;;;;;30.55;21.38;;;9.60;99.90;;;;;;4984852;28;20039;-74
2023/03/06 12:46:14;;;;;;;19.55;16.55;;;9.20;99.90;;;;;;4965987;28;20043;-75
2023/03/06 12:48:44;;;;;;;23.13;18.23;;;9.50;99.90;;;;;;4982402;28;20031;-74
2023/03/06 12:51:15;;;;;;;25.40;18.85;;;9.20;99.90;;;;;;4967489;29;20473;-74
2023/03/06 12:53:43;;;;;;;24.27;18.15;;;9.10;99.90;;;;;;4967464;28;20036;-75
2023/03/06 12:56:14;;;;;;;22.73;20.20;;;8.70;99.90;;;;;;4966140;29;20019;-74